createdAt,value
2023-05-01T00:02:07.009Z,12.92
2023-05-01T00:04:34.708Z,12.89
2023-05-01T00:07:02.166Z,12.93
2023-05-01T00:09:29.655Z,12.88
2023-05-01T00:11:57.116Z,12.83
2023-05-01T00:14:24.647Z,12.81
2023-05-01T00:16:53.526Z,12.82
2023-05-01T00:19:21.342Z,12.82
2023-05-01T00:21:51.554Z,12.76
2023-05-01T00:24:19.068Z,12.75
2023-05-01T00:26:46.644Z,12.77
2023-05-01T00:29:14.329Z,12.70
2023-05-01T00:31:42.704Z,12.69
2023-05-01T00:34:11.735Z,12.68
2023-05-01T00:36:39.281Z,12.65
2023-05-01T00:39:07.556Z,12.58
2023-05-01T00:41:35.088Z,12.63
2023-05-01T00:44:03.205Z,12.66
2023-05-01T00:46:31.246Z,12.65
2023-05-01T00:48:59.110Z,12.63
2023-05-01T00:51:30.189Z,12.62
2023-05-01T00:53:58.225Z,12.58
2023-05-01T00:56:26.338Z,12.56
2023-05-01T00:58:54.363Z,12.58
2023-05-01T01:01:22.160Z,12.52
2023-05-01T01:03:51.319Z,12.52
2023-05-01T01:06:25.229Z,12.46
2023-05-01T01:08:58.931Z,12.42
2023-05-01T01:11:30.873Z,12.45
2023-05-01T01:14:01.525Z,12.41
2023-05-01T01:16:33.946Z,12.41
2023-05-01T01:19:06.014Z,12.37
2023-05-01T01:21:36.485Z,12.34
2023-05-01T01:24:40.329Z,12.32
2023-05-01T01:27:32.162Z,12.28
2023-05-01T01:30:27.061Z,12.28
2023-05-01T01:33:29.913Z,12.22
2023-05-01T01:36:03.531Z,12.16
2023-05-01T01:38:37.554Z,12.17
2023-05-01T01:41:09.374Z,12.09
2023-05-01T01:43:40.379Z,12.06
2023-05-01T01:46:09.109Z,12.03
2023-05-01T01:48:39.519Z,12.03
2023-05-01T01:51:11.603Z,11.98
2023-05-01T01:53:40.301Z,11.89
2023-05-01T01:56:08.907Z,11.91
2023-05-01T01:58:37.705Z,11.87
2023-05-01T02:01:05.777Z,11.87
2023-05-01T02:03:34.304Z,11.84
2023-05-01T02:06:02.514Z,11.74
2023-05-01T02:08:32.480Z,11.73
2023-05-01T02:11:02.124Z,11.71
2023-05-01T02:13:31.142Z,11.66
2023-05-01T02:15:59.895Z,11.65
2023-05-01T02:18:28.954Z,11.60
2023-05-01T02:20:56.750Z,11.60
2023-05-01T02:23:25.205Z,11.60
2023-05-01T02:25:54.545Z,11.52
2023-05-01T02:28:23.782Z,11.49
2023-05-01T02:30:52.583Z,11.49
2023-05-01T02:33:20.089Z,11.49
2023-05-01T02:35:48.158Z,11.42
2023-05-01T02:38:16.134Z,11.41
2023-05-01T02:40:45.569Z,11.43
2023-05-01T02:43:17.819Z,11.37
2023-05-01T02:45:45.934Z,11.39
2023-05-01T02:48:17.384Z,11.27
2023-05-01T02:50:45.483Z,11.34
2023-05-01T02:53:13.385Z,11.24
2023-05-01T02:55:42.385Z,11.23
2023-05-01T02:58:09.907Z,11.09
2023-05-01T03:00:38.724Z,11.15
2023-05-01T03:03:06.221Z,11.08
2023-05-01T03:05:33.807Z,11.00
2023-05-01T03:08:01.268Z,11.06
2023-05-01T03:10:28.814Z,10.97
2023-05-01T03:12:56.338Z,10.99
2023-05-01T03:15:23.845Z,10.98
2023-05-01T03:17:52.840Z,10.89
2023-05-01T03:20:20.434Z,10.94
2023-05-01T03:22:47.922Z,10.96
2023-05-01T03:25:15.502Z,10.93
2023-05-01T03:27:42.962Z,10.93
2023-05-01T03:30:11.478Z,10.91
2023-05-01T03:32:39.023Z,10.82
2023-05-01T03:35:09.306Z,10.73
2023-05-01T03:37:36.920Z,10.70
2023-05-01T03:40:04.690Z,10.70
2023-05-01T03:42:32.260Z,10.65
2023-05-01T03:44:59.778Z,10.63
2023-05-01T03:47:27.551Z,10.62
2023-05-01T03:49:55.763Z,10.62
2023-05-01T03:52:24.755Z,10.65
2023-05-01T03:54:52.392Z,10.70
2023-05-01T03:57:20.656Z,10.73
2023-05-01T03:59:48.260Z,10.62
2023-05-01T04:02:16.007Z,10.61
2023-05-01T04:04:43.476Z,10.65
2023-05-01T04:07:11.630Z,10.61
2023-05-01T04:09:40.428Z,10.62
2023-05-01T04:12:07.876Z,10.66
2023-05-01T04:14:35.692Z,10.59
2023-05-01T04:17:03.225Z,10.56
2023-05-01T04:19:30.653Z,10.64
2023-05-01T04:21:58.225Z,10.69
2023-05-01T04:24:25.664Z,10.65
2023-05-01T04:26:54.459Z,10.64
2023-05-01T04:29:21.919Z,10.56
2023-05-01T04:31:49.411Z,10.60
2023-05-01T04:34:17.147Z,10.60
2023-05-01T04:36:44.688Z,10.58
2023-05-01T04:39:12.247Z,10.54
2023-05-01T04:41:39.716Z,10.53
2023-05-01T04:44:08.528Z,10.48
2023-05-01T04:46:36.054Z,10.49
2023-05-01T04:49:03.610Z,10.49
2023-05-01T04:51:31.138Z,10.43
2023-05-01T04:53:58.651Z,10.44
2023-05-01T04:56:26.268Z,10.38
2023-05-01T04:58:53.820Z,10.43
2023-05-01T05:01:22.664Z,10.43
2023-05-01T05:03:50.455Z,10.46
2023-05-01T05:06:18.103Z,10.45
2023-05-01T05:08:45.670Z,10.44
2023-05-01T05:11:13.166Z,10.50
2023-05-01T05:13:40.606Z,10.53
2023-05-01T05:16:08.539Z,10.61
2023-05-01T05:18:37.418Z,10.61
2023-05-01T05:21:05.864Z,10.63
2023-05-01T05:23:33.412Z,10.65
2023-05-01T05:26:01.647Z,10.64
2023-05-01T05:28:29.433Z,10.71
2023-05-01T05:30:57.087Z,10.74
2023-05-01T05:33:25.128Z,10.76
2023-05-01T05:35:53.955Z,10.90
2023-05-01T05:38:21.751Z,10.95
2023-05-01T05:40:49.204Z,10.91
2023-05-01T05:43:16.718Z,10.95
2023-05-01T05:45:44.252Z,10.95
2023-05-01T05:48:11.900Z,11.06
2023-05-01T05:50:40.142Z,11.11
2023-05-01T05:53:09.790Z,11.15
2023-05-01T05:55:37.273Z,11.16
2023-05-01T05:58:04.847Z,11.27
2023-05-01T06:00:32.386Z,11.32
2023-05-01T06:02:59.940Z,11.39
2023-05-01T06:05:27.646Z,11.49
2023-05-01T06:07:55.388Z,11.52
2023-05-01T06:10:24.230Z,11.65
2023-05-01T06:13:08.336Z,11.75
2023-05-01T06:15:39.569Z,11.83
2023-05-01T06:18:07.668Z,11.95
2023-05-01T06:20:35.389Z,12.02
2023-05-01T06:23:02.913Z,12.01
2023-05-01T06:25:32.015Z,12.06
2023-05-01T06:27:59.931Z,12.12
2023-05-01T06:30:27.453Z,12.19
2023-05-01T06:32:54.971Z,12.28
2023-05-01T06:35:22.482Z,12.29
2023-05-01T06:37:49.976Z,12.29
2023-05-01T06:40:17.468Z,12.42
2023-05-01T06:42:46.285Z,12.48
2023-05-01T06:45:15.903Z,12.51
2023-05-01T06:47:43.537Z,12.58
2023-05-01T06:50:12.167Z,12.64
2023-05-01T06:52:39.611Z,12.65
2023-05-01T06:55:07.629Z,12.67
2023-05-01T06:57:35.071Z,12.71
2023-05-01T07:00:04.526Z,12.70
2023-05-01T07:02:32.124Z,12.72
2023-05-01T07:05:00.751Z,12.76
2023-05-01T07:07:28.243Z,12.78
2023-05-01T07:09:55.950Z,12.91
2023-05-01T07:12:23.726Z,12.97
2023-05-01T07:14:51.146Z,13.05
2023-05-01T07:17:19.934Z,13.07
2023-05-01T07:19:47.448Z,13.17
2023-05-01T07:22:14.991Z,13.23
2023-05-01T07:24:42.583Z,13.23
2023-05-01T07:27:10.113Z,13.27
2023-05-01T07:29:39.883Z,13.33
2023-05-01T07:32:08.094Z,13.42
2023-05-01T07:34:37.031Z,13.51
2023-05-01T07:37:04.870Z,13.64
2023-05-01T07:39:32.458Z,13.67
2023-05-01T07:41:59.999Z,13.74
2023-05-01T07:44:27.445Z,13.79
2023-05-01T07:46:54.957Z,13.88
2023-05-01T07:49:22.447Z,14.01
2023-05-01T07:51:51.583Z,14.16
2023-05-01T07:54:21.924Z,14.28
2023-05-01T07:56:49.889Z,14.31
2023-05-01T07:59:17.394Z,14.35
2023-05-01T08:01:44.876Z,14.28
2023-05-01T08:04:12.453Z,14.40
2023-05-01T08:06:40.318Z,14.33
2023-05-01T08:09:11.907Z,14.59
2023-05-01T08:11:41.634Z,14.72
2023-05-01T08:14:09.198Z,14.81
2023-05-01T08:16:36.922Z,14.90
2023-05-01T08:19:04.446Z,14.90
2023-05-01T08:21:32.268Z,14.94
2023-05-01T08:23:59.716Z,14.89
2023-05-01T08:26:28.525Z,14.89
2023-05-01T08:28:55.996Z,14.90
2023-05-01T08:31:25.028Z,14.98
2023-05-01T08:33:52.583Z,14.92
2023-05-01T08:36:21.330Z,15.14
2023-05-01T08:38:49.007Z,15.24
2023-05-01T08:41:17.420Z,15.38
2023-05-01T08:43:46.396Z,15.36
2023-05-01T08:46:14.646Z,15.35
2023-05-01T08:48:43.328Z,15.33
2023-05-01T08:51:11.277Z,15.27
2023-05-01T08:53:39.660Z,15.47
2023-05-01T08:56:08.075Z,15.59
2023-05-01T08:58:36.389Z,15.60
2023-05-01T09:01:05.397Z,15.69
2023-05-01T09:03:33.217Z,15.89
2023-05-01T09:06:01.226Z,15.91
2023-05-01T09:08:28.681Z,15.77
2023-05-01T09:10:57.709Z,15.99
2023-05-01T09:13:26.217Z,16.25
2023-05-01T09:15:53.704Z,16.29
2023-05-01T09:18:23.641Z,16.11
2023-05-01T09:20:51.116Z,16.22
2023-05-01T09:23:20.163Z,16.35
2023-05-01T09:25:49.568Z,16.50
2023-05-01T09:28:18.380Z,16.38
2023-05-01T09:30:46.309Z,16.49
2023-05-01T09:33:14.767Z,16.41
2023-05-01T09:35:54.315Z,16.65
2023-05-01T09:38:22.814Z,16.72
2023-05-01T09:40:51.785Z,16.79
2023-05-01T09:43:27.549Z,16.78
2023-05-01T09:46:02.316Z,16.80
2023-05-01T09:48:31.993Z,16.75
2023-05-01T09:51:02.634Z,16.75
2023-05-01T09:53:38.971Z,16.78
2023-05-01T09:56:07.056Z,16.79
2023-05-01T09:58:34.587Z,16.80
2023-05-01T10:01:02.141Z,16.88
2023-05-01T10:03:30.174Z,16.83
2023-05-01T10:06:00.731Z,16.94
2023-05-01T10:08:45.258Z,16.93
2023-05-01T10:11:12.774Z,16.96
2023-05-01T10:13:40.376Z,16.98
2023-05-01T10:16:10.392Z,16.78
2023-05-01T10:18:38.419Z,16.92
2023-05-01T10:21:06.221Z,17.03
2023-05-01T10:23:35.179Z,17.14
2023-05-01T10:26:05.143Z,17.20
2023-05-01T10:28:33.428Z,17.31
2023-05-01T10:31:01.685Z,17.35
2023-05-01T10:33:29.557Z,17.51
2023-05-01T10:35:58.505Z,17.64
2023-05-01T10:38:29.117Z,17.54
2023-05-01T10:40:57.946Z,17.56
2023-05-01T10:43:28.469Z,17.64
2023-05-01T10:46:28.095Z,17.86
2023-05-01T10:48:58.850Z,18.02
2023-05-01T10:51:28.198Z,18.11
2023-05-01T10:54:34.639Z,18.11
2023-05-01T10:57:04.292Z,18.19
2023-05-01T11:00:06.374Z,18.30
2023-05-01T11:02:33.889Z,18.41
2023-05-01T11:05:01.581Z,18.55
2023-05-01T11:07:29.246Z,18.67
2023-05-01T11:09:58.787Z,18.81
2023-05-01T11:12:50.972Z,18.76
2023-05-01T11:15:29.169Z,18.80
2023-05-01T11:17:56.886Z,18.70
2023-05-01T11:21:02.091Z,18.80
2023-05-01T11:23:29.578Z,18.95
2023-05-01T11:26:05.680Z,19.03
2023-05-01T11:28:34.824Z,19.05
2023-05-01T11:31:03.274Z,19.05
2023-05-01T11:33:31.769Z,18.89
2023-05-01T11:36:00.568Z,18.95
2023-05-01T11:38:28.223Z,18.75
2023-05-01T11:40:58.641Z,18.74
2023-05-01T11:43:26.263Z,18.66
2023-05-01T11:46:01.722Z,18.83
2023-05-01T11:48:30.880Z,18.83
2023-05-01T11:50:58.661Z,18.64
2023-05-01T11:53:26.201Z,18.70
2023-05-01T11:55:53.656Z,18.98
2023-05-01T11:58:34.765Z,19.05
2023-05-01T12:01:03.729Z,19.13
2023-05-01T12:03:41.849Z,19.01
2023-05-01T12:06:10.974Z,19.11
2023-05-01T12:08:39.528Z,19.17
2023-05-01T12:11:07.833Z,19.04
2023-05-01T12:13:35.581Z,19.09
2023-05-01T12:16:05.850Z,19.05
2023-05-01T12:18:33.519Z,19.22
2023-05-01T12:21:01.204Z,19.24
2023-05-01T12:23:33.956Z,19.15
2023-05-01T12:26:02.911Z,19.10
2023-05-01T12:28:30.515Z,19.24
2023-05-01T12:31:05.511Z,19.27
2023-05-01T12:33:33.271Z,19.03
2023-05-01T12:36:11.047Z,19.25
2023-05-01T12:38:38.871Z,19.18
2023-05-01T12:41:09.313Z,19.20
2023-05-01T12:43:38.140Z,19.34
2023-05-01T12:46:07.640Z,19.39
2023-05-01T12:48:39.695Z,19.29
2023-05-01T12:51:07.676Z,19.39
2023-05-01T12:53:35.328Z,19.35
2023-05-01T12:56:03.341Z,19.29
2023-05-01T12:58:37.236Z,19.63
2023-05-01T13:01:05.113Z,19.14
2023-05-01T13:03:37.722Z,19.15
2023-05-01T13:06:07.770Z,19.14
2023-05-01T13:08:38.323Z,19.06
2023-05-01T13:11:11.005Z,19.23
2023-05-01T13:13:38.632Z,19.28
2023-05-01T13:16:08.936Z,19.25
2023-05-01T13:18:45.626Z,19.35
2023-05-01T13:21:15.892Z,19.13
2023-05-01T13:23:44.314Z,19.29
2023-05-01T13:26:12.290Z,19.29
2023-05-01T13:28:44.977Z,18.99
2023-05-01T13:31:14.297Z,19.25
2023-05-01T13:33:43.938Z,19.19
2023-05-01T13:36:24.473Z,19.45
2023-05-01T13:38:55.629Z,19.79
2023-05-01T13:41:25.444Z,19.95
2023-05-01T13:43:54.394Z,19.76
2023-05-01T13:46:23.362Z,19.87
2023-05-01T13:48:52.341Z,20.09
2023-05-01T13:51:21.979Z,19.74
2023-05-01T13:53:49.531Z,19.62
2023-05-01T13:56:17.064Z,19.39
2023-05-01T13:58:44.762Z,19.27
2023-05-01T14:01:16.768Z,19.24
2023-05-01T14:03:44.614Z,19.29
2023-05-01T14:06:14.940Z,19.28
2023-05-01T14:08:43.019Z,19.23
2023-05-01T14:11:11.595Z,19.21
2023-05-01T14:13:41.401Z,18.93
2023-05-01T14:16:11.410Z,19.03
2023-05-01T14:18:44.533Z,18.89
2023-05-01T14:21:14.252Z,18.89
2023-05-01T14:23:43.011Z,18.70
2023-05-01T14:26:11.229Z,18.44
2023-05-01T14:28:43.073Z,18.40
2023-05-01T14:31:11.329Z,18.45
2023-05-01T14:33:42.587Z,18.24
2023-05-01T14:36:10.052Z,18.20
2023-05-01T14:38:41.455Z,18.03
2023-05-01T14:41:13.470Z,18.13
2023-05-01T14:43:42.298Z,18.22
2023-05-01T14:46:09.776Z,17.91
2023-05-01T14:48:37.810Z,17.90
2023-05-01T14:51:06.436Z,17.99
2023-05-01T14:53:34.287Z,17.71
2023-05-01T14:56:03.091Z,17.66
2023-05-01T14:58:30.807Z,17.48
2023-05-01T15:00:58.318Z,17.30
2023-05-01T15:03:26.114Z,16.78
2023-05-01T15:05:54.210Z,16.73
2023-05-01T15:08:21.817Z,17.01
2023-05-01T15:10:49.282Z,17.03
2023-05-01T15:13:18.111Z,17.35
2023-05-01T15:15:45.619Z,17.61
2023-05-01T15:18:13.187Z,17.82
2023-05-01T15:20:40.873Z,18.15
2023-05-01T15:23:08.414Z,18.31
2023-05-01T15:25:36.011Z,18.42
2023-05-01T15:28:03.903Z,18.61
2023-05-01T15:30:32.701Z,18.70
2023-05-01T15:33:24.414Z,18.79
2023-05-01T15:35:52.646Z,18.76
2023-05-01T15:38:21.608Z,18.90
2023-05-01T15:40:50.170Z,18.87
2023-05-01T15:43:17.815Z,18.71
2023-05-01T15:45:46.794Z,18.91
2023-05-01T15:48:14.581Z,18.92
2023-05-01T15:50:42.061Z,18.76
2023-05-01T15:53:09.527Z,18.37
2023-05-01T15:55:37.073Z,18.66
2023-05-01T15:58:04.860Z,18.82
2023-05-01T16:00:32.768Z,19.13
2023-05-01T16:03:01.990Z,19.13
2023-05-01T16:05:29.524Z,19.02
2023-05-01T16:08:01.186Z,19.21
2023-05-01T16:10:28.829Z,19.49
2023-05-01T16:12:56.469Z,19.76
2023-05-01T16:15:24.233Z,19.53
2023-05-01T16:17:54.180Z,19.49
2023-05-01T16:20:24.581Z,19.26
2023-05-01T16:22:52.039Z,19.61
2023-05-01T16:25:19.741Z,19.58
2023-05-01T16:27:47.612Z,19.73
2023-05-01T16:30:15.931Z,19.83
2023-05-01T16:32:43.760Z,19.75
2023-05-01T16:35:12.038Z,19.68
2023-05-01T16:37:40.898Z,19.47
2023-05-01T16:40:10.207Z,19.39
2023-05-01T16:42:38.748Z,19.37
2023-05-01T16:45:08.760Z,19.41
2023-05-01T16:47:36.810Z,19.38
2023-05-01T16:50:09.554Z,19.35
2023-05-01T16:52:37.027Z,19.45
2023-05-01T16:55:07.009Z,19.48
2023-05-01T16:57:34.625Z,19.25
2023-05-01T17:00:03.148Z,19.09
2023-05-01T17:02:31.322Z,18.75
2023-05-01T17:04:59.356Z,18.75
2023-05-01T17:07:26.812Z,18.62
2023-05-01T17:09:54.365Z,18.59
2023-05-01T17:12:24.488Z,18.48
2023-05-01T17:14:53.587Z,18.42
2023-05-01T17:17:22.448Z,18.35
2023-05-01T17:19:50.144Z,18.29
2023-05-01T17:22:17.693Z,18.24
2023-05-01T17:24:45.306Z,18.08
2023-05-01T17:27:13.605Z,18.10
2023-05-01T17:29:42.417Z,18.04
2023-05-01T17:32:09.920Z,17.83
2023-05-01T17:34:37.407Z,17.81
2023-05-01T17:37:04.930Z,17.67
2023-05-01T17:39:32.393Z,17.71
2023-05-01T17:41:59.889Z,17.71
2023-05-01T17:44:27.469Z,17.62
2023-05-01T17:46:56.321Z,17.55
2023-05-01T17:49:24.031Z,17.62
2023-05-01T17:51:51.470Z,17.59
2023-05-01T17:54:19.425Z,17.64
2023-05-01T17:56:47.192Z,17.67
2023-05-01T17:59:14.768Z,17.68
2023-05-01T18:01:42.252Z,17.63
2023-05-01T18:04:11.495Z,17.57
2023-05-01T18:06:39.487Z,17.52
2023-05-01T18:09:07.576Z,17.36
2023-05-01T18:11:35.007Z,17.22
2023-05-01T18:14:02.662Z,17.19
2023-05-01T18:16:30.169Z,17.13
2023-05-01T18:18:58.727Z,17.06
2023-05-01T18:21:27.656Z,16.92
2023-05-01T18:23:55.212Z,16.87
2023-05-01T18:26:22.698Z,16.80
2023-05-01T18:28:50.492Z,16.72
2023-05-01T18:31:18.032Z,16.71
2023-05-01T18:33:45.535Z,16.62
2023-05-01T18:36:13.013Z,16.60
2023-05-01T18:38:41.990Z,16.38
2023-05-01T18:41:09.480Z,16.26
2023-05-01T18:43:36.921Z,16.24
2023-05-01T18:46:04.439Z,16.13
2023-05-01T18:48:31.969Z,15.85
2023-05-01T18:51:08.417Z,15.85
2023-05-01T18:53:36.929Z,15.84
2023-05-01T18:56:06.094Z,15.87
2023-05-01T18:58:33.680Z,15.91
2023-05-01T19:01:01.171Z,15.92
2023-05-01T19:03:28.639Z,15.82
2023-05-01T19:05:56.269Z,16.14
2023-05-01T19:08:23.961Z,16.06
2023-05-01T19:10:51.481Z,16.07
2023-05-01T19:13:20.623Z,16.20
2023-05-01T19:15:48.121Z,16.25
2023-05-01T19:18:16.849Z,16.25
2023-05-01T19:20:45.793Z,16.28
2023-05-01T19:23:13.372Z,16.18
2023-05-01T19:25:40.808Z,16.08
2023-05-01T19:28:08.274Z,16.11
2023-05-01T19:30:37.109Z,15.96
2023-05-01T19:33:04.968Z,16.07
2023-05-01T19:35:32.435Z,16.12
2023-05-01T19:38:00.424Z,16.04
2023-05-01T19:40:27.900Z,15.89
2023-05-01T19:42:55.420Z,15.89
2023-05-01T19:45:23.128Z,15.79
2023-05-01T19:47:51.970Z,15.89
2023-05-01T19:50:20.096Z,15.93
2023-05-01T19:52:47.623Z,15.83
2023-05-01T19:55:16.860Z,15.77
2023-05-01T19:57:44.311Z,15.77
2023-05-01T20:00:12.749Z,15.75
2023-05-01T20:02:40.425Z,15.85
2023-05-01T20:05:10.643Z,15.82
2023-05-01T20:07:38.249Z,15.63
2023-05-01T20:10:06.880Z,15.68
2023-05-01T20:12:34.328Z,15.75
2023-05-01T20:15:01.848Z,15.68
2023-05-01T20:17:29.622Z,15.64
2023-05-01T20:19:57.277Z,15.51
2023-05-01T20:22:26.199Z,15.45
2023-05-01T20:24:53.678Z,15.64
2023-05-01T20:27:21.330Z,15.43
2023-05-01T20:29:48.794Z,15.51
2023-05-01T20:32:16.330Z,15.49
2023-05-01T20:34:43.869Z,15.54
2023-05-01T20:37:11.317Z,15.49
2023-05-01T20:39:40.621Z,15.51
2023-05-01T20:42:08.333Z,15.44
2023-05-01T20:44:35.776Z,15.43
2023-05-01T20:47:03.415Z,15.40
2023-05-01T20:49:30.918Z,15.37
2023-05-01T20:51:58.649Z,15.27
2023-05-01T20:54:26.208Z,15.27
2023-05-01T20:56:54.969Z,15.18
2023-05-01T20:59:22.518Z,15.04
2023-05-01T21:01:50.081Z,15.03
2023-05-01T21:04:17.849Z,15.07
2023-05-01T21:06:45.450Z,14.91
2023-05-01T21:09:14.985Z,15.11
2023-05-01T21:11:42.477Z,14.97
2023-05-01T21:14:11.836Z,15.00
2023-05-01T21:16:39.839Z,14.87
2023-05-01T21:19:07.801Z,14.94
2023-05-01T21:21:36.726Z,14.82
2023-05-01T21:24:04.624Z,14.86
2023-05-01T21:26:32.245Z,14.66
2023-05-01T21:28:59.756Z,14.72
2023-05-01T21:31:31.419Z,14.66
2023-05-01T21:34:02.274Z,14.50
2023-05-01T21:36:29.761Z,14.56
2023-05-01T21:38:57.275Z,14.61
2023-05-01T21:41:25.110Z,14.66
2023-05-01T21:43:53.107Z,14.75
2023-05-01T21:46:20.657Z,14.77
2023-05-01T21:48:52.175Z,14.62
2023-05-01T21:51:19.689Z,14.74
2023-05-01T21:53:47.150Z,14.72
2023-05-01T21:56:15.295Z,14.73
2023-05-01T21:58:42.756Z,14.64
2023-05-01T22:01:10.319Z,14.60
2023-05-01T22:03:40.760Z,14.58
2023-05-01T22:06:09.748Z,14.45
2023-05-01T22:08:37.217Z,14.50
2023-05-01T22:11:06.439Z,14.66
2023-05-01T22:13:34.693Z,14.71
2023-05-01T22:16:02.196Z,14.59
2023-05-01T22:18:29.982Z,14.54
2023-05-01T22:20:57.469Z,14.58
2023-05-01T22:23:26.371Z,14.59
2023-05-01T22:25:59.762Z,14.34
2023-05-01T22:28:27.272Z,14.27
2023-05-01T22:30:55.017Z,14.29
2023-05-01T22:33:22.477Z,14.24
2023-05-01T22:35:49.932Z,14.30
2023-05-01T22:38:17.375Z,14.43
2023-05-01T22:40:46.168Z,14.42
2023-05-01T22:43:13.655Z,14.40
2023-05-01T22:45:42.362Z,14.40
2023-05-01T22:48:10.569Z,14.36
2023-05-01T22:50:38.110Z,14.39
2023-05-01T22:53:05.841Z,14.27
2023-05-01T22:55:33.799Z,14.27
2023-05-01T22:58:02.568Z,14.34
2023-05-01T23:00:30.148Z,14.20
2023-05-01T23:02:57.750Z,14.28
2023-05-01T23:05:25.480Z,14.39
2023-05-01T23:07:52.956Z,14.44
2023-05-01T23:10:22.242Z,14.34
2023-05-01T23:12:49.676Z,14.28
2023-05-01T23:15:24.226Z,14.09
2023-05-01T23:17:52.154Z,14.05
2023-05-01T23:20:24.436Z,14.10
2023-05-01T23:22:52.248Z,14.13
2023-05-01T23:25:25.251Z,14.27
2023-05-01T23:27:53.728Z,14.16
2023-05-01T23:30:23.217Z,14.10
2023-05-01T23:32:51.111Z,14.21
2023-05-01T23:35:23.613Z,14.11
2023-05-01T23:37:53.491Z,14.06
2023-05-01T23:40:21.012Z,13.83
2023-05-01T23:42:48.706Z,14.00
2023-05-01T23:45:16.935Z,14.02
2023-05-01T23:47:45.836Z,13.95
2023-05-01T23:50:13.391Z,13.92
2023-05-01T23:52:40.998Z,13.85
2023-05-01T23:55:09.012Z,13.78
2023-05-01T23:57:36.469Z,13.64
